Terminal Aerodrome Forecast
Issued by NWS

Home | Current Version | Previous Version | Text Only | Print | Product List | Glossary On
Versions: 1 2 3 4 5 6 7 8 9 10 11
000
FTUS42 TJSJ 232349
TAFKPK
TAF
TKPK 232349Z 2400/2424 03012KT P6SM VCTS SCT015CB BKN025
      TEMPO 2400/2404 VRB10G20KT -TSRA BKN018CB
     FM240400 09015KT 4SM TSRA SCT010CB BKN015 OVC030
     FM241000 13015KT P6SM VCTS BKN015CB OVC025
     FM242000 16006KT P6SM VCSH SCT018 BKN035
      AMD NOT SKED 2402/2411=

USA.gov is the U.S. government's official web portal to all federal, state and local government web resources and services.